createdAt,value
2023-01-11T00:00:00.441Z,21.40
2023-01-11T00:05:02.141Z,20.30
2023-01-11T00:10:04.929Z,22.40
2023-01-11T00:15:16.267Z,17.00
2023-01-11T00:20:19.448Z,15.40
2023-01-11T00:25:21.124Z,14.50
2023-01-11T00:30:23.476Z,13.20
2023-01-11T00:35:26.590Z,14.20
2023-01-11T00:40:28.406Z,13.90
2023-01-11T00:45:48.902Z,15.00
2023-01-11T00:50:53.916Z,17.30
2023-01-11T00:55:55.676Z,18.20
2023-01-11T01:00:57.454Z,26.40
2023-01-11T01:05:59.078Z,21.90
2023-01-11T01:11:00.811Z,20.80
2023-01-11T01:16:02.467Z,19.40
2023-01-11T01:21:04.187Z,19.80
2023-01-11T01:26:06.830Z,22.80
2023-01-11T01:31:08.599Z,22.30
2023-01-11T01:36:10.702Z,22.00
2023-01-11T01:41:13.758Z,22.60
2023-01-11T01:46:16.566Z,26.20
2023-01-11T01:51:25.138Z,27.90
2023-01-11T01:56:33.676Z,29.00
2023-01-11T02:01:47.686Z,22.80
2023-01-11T02:06:53.076Z,23.70
2023-01-11T02:11:57.387Z,23.90
2023-01-11T02:16:59.061Z,25.10
2023-01-11T02:22:24.691Z,24.60
2023-01-11T02:27:48.294Z,27.80
2023-01-11T02:33:01.639Z,32.50
2023-01-11T02:38:10.329Z,37.90
2023-01-11T02:43:42.704Z,36.60
2023-01-11T02:48:57.778Z,32.10
2023-01-11T02:54:06.602Z,30.90
2023-01-11T02:59:17.068Z,27.90
2023-01-11T03:04:32.053Z,29.00
2023-01-11T03:09:59.673Z,27.30
2023-01-11T03:15:29.058Z,29.40
2023-01-11T03:20:38.440Z,30.80
2023-01-11T03:26:14.012Z,32.90
2023-01-11T03:31:39.140Z,33.40
2023-01-11T03:36:52.305Z,29.10
2023-01-11T03:41:58.210Z,29.50
2023-01-11T03:47:06.837Z,31.80
2023-01-11T03:52:12.643Z,37.00
2023-01-11T03:57:24.676Z,36.80
2023-01-11T04:02:33.400Z,35.20
2023-01-11T04:07:35.510Z,36.80
2023-01-11T04:12:37.619Z,59.20
2023-01-11T04:17:39.359Z,52.40
2023-01-11T04:22:41.058Z,42.40
2023-01-11T04:27:42.780Z,41.60
2023-01-11T04:32:44.396Z,35.60
2023-01-11T04:37:46.063Z,33.00
2023-01-11T04:42:47.775Z,31.20
2023-01-11T04:47:57.373Z,27.60
2023-01-11T04:52:59.525Z,23.00
2023-01-11T04:58:01.325Z,23.10
2023-01-11T05:03:03.108Z,25.70
2023-01-11T05:08:05.009Z,30.60
2023-01-11T05:13:06.706Z,29.30
2023-01-11T05:18:08.367Z,32.60
2023-01-11T05:23:10.156Z,31.60
2023-01-11T05:28:11.865Z,33.00
2023-01-11T05:33:13.593Z,39.60
2023-01-11T05:38:15.476Z,39.40
2023-01-11T05:43:17.156Z,39.00
2023-01-11T05:48:19.219Z,37.30
2023-01-11T05:53:22.931Z,33.50
2023-01-11T05:58:26.822Z,35.80
2023-01-11T06:03:28.585Z,36.20
2023-01-11T06:08:30.329Z,35.70
2023-01-11T06:13:33.774Z,37.80
2023-01-11T06:18:39.140Z,35.40
2023-01-11T06:23:44.267Z,42.00
2023-01-11T06:28:46.494Z,44.80
2023-01-11T06:33:48.197Z,44.10
2023-01-11T06:38:49.838Z,43.10
2023-01-11T06:43:51.615Z,52.50
2023-01-11T06:48:53.360Z,49.30
2023-01-11T06:53:55.055Z,41.70
2023-01-11T06:58:56.699Z,40.00
2023-01-11T07:03:58.486Z,40.80
2023-01-11T07:09:00.310Z,41.30
2023-01-11T07:14:01.999Z,41.90
2023-01-11T07:19:03.683Z,40.10
2023-01-11T07:24:05.692Z,41.00
2023-01-11T07:29:10.842Z,39.90
2023-01-11T07:34:12.619Z,42.20
2023-01-11T07:39:14.291Z,40.60
2023-01-11T07:44:16.244Z,38.40
2023-01-11T07:49:17.960Z,38.30
2023-01-11T07:54:19.996Z,31.60
2023-01-11T07:59:21.653Z,38.90
2023-01-11T08:09:42.766Z,40.10
2023-01-11T08:14:44.558Z,38.50
2023-01-11T08:19:46.307Z,40.50
2023-01-11T08:24:48.100Z,43.20
2023-01-11T08:29:49.956Z,41.70
2023-01-11T08:34:51.808Z,38.70
2023-01-11T08:39:55.957Z,46.10
2023-01-11T08:44:57.711Z,44.50
2023-01-11T08:49:59.544Z,38.00
2023-01-11T08:55:01.283Z,35.80
2023-01-11T09:00:07.570Z,40.90
2023-01-11T09:05:09.559Z,38.80
2023-01-11T09:10:11.439Z,32.60
2023-01-11T09:15:13.117Z,33.60
2023-01-11T09:20:15.153Z,37.50
2023-01-11T09:25:17.232Z,30.90
2023-01-11T09:30:21.748Z,38.60
2023-01-11T09:35:23.413Z,36.10
2023-01-11T09:41:04.823Z,38.20
2023-01-11T09:46:09.234Z,33.40
2023-01-11T09:51:15.951Z,35.40
2023-01-11T09:56:25.535Z,38.00
2023-01-11T10:01:49.551Z,33.20
2023-01-11T10:07:15.535Z,37.30
2023-01-11T10:18:43.435Z,37.40
2023-01-11T10:23:55.480Z,37.50
2023-01-11T10:29:16.473Z,30.50
2023-01-11T10:34:39.185Z,28.40
2023-01-11T10:40:23.838Z,20.90
2023-01-11T10:45:40.580Z,20.00
2023-01-11T10:51:05.042Z,14.80
2023-01-11T10:56:15.445Z,16.10
2023-01-11T11:01:51.515Z,11.00
2023-01-11T11:07:24.182Z,12.80
2023-01-11T11:12:31.000Z,12.30
2023-01-11T11:17:36.625Z,12.30
2023-01-11T11:22:38.256Z,11.30
2023-01-11T11:27:41.502Z,13.10
2023-01-11T11:33:10.896Z,13.10
2023-01-11T11:38:34.052Z,12.00
2023-01-11T11:43:38.064Z,10.70
2023-01-11T11:48:41.466Z,11.40
2023-01-11T11:53:51.683Z,10.00
2023-01-11T11:58:54.629Z,7.20
2023-01-11T12:04:01.196Z,8.80
2023-01-11T12:09:03.634Z,8.60
2023-01-11T12:14:11.280Z,9.00
2023-01-11T12:19:43.883Z,10.00
2023-01-11T12:24:47.643Z,5.00
2023-01-11T12:30:14.196Z,6.30
2023-01-11T12:35:40.746Z,8.70
2023-01-11T12:40:51.052Z,6.10
2023-01-11T12:46:22.835Z,9.20
2023-01-11T12:51:43.219Z,6.40
2023-01-11T12:57:13.099Z,5.20
2023-01-11T13:02:39.508Z,9.10
2023-01-11T13:07:59.370Z,12.40
2023-01-11T13:13:17.456Z,10.00
2023-01-11T13:18:29.689Z,7.40
2023-01-11T13:23:50.772Z,10.80
2023-01-11T13:29:02.927Z,12.80
2023-01-11T13:34:12.705Z,16.50
2023-01-11T13:39:28.509Z,16.90
2023-01-11T13:44:42.546Z,16.30
2023-01-11T13:49:44.349Z,18.00
2023-01-11T13:54:58.945Z,16.80
2023-01-11T14:00:18.597Z,17.50
2023-01-11T14:05:22.489Z,16.90
2023-01-11T14:10:54.588Z,14.60
2023-01-11T14:16:04.789Z,18.10
2023-01-11T14:21:28.540Z,23.90
2023-01-11T14:26:49.208Z,14.80
2023-01-11T14:32:39.417Z,10.60
2023-01-11T14:38:05.708Z,11.40
2023-01-11T14:43:33.710Z,10.70
2023-01-11T14:48:44.803Z,14.40
2023-01-11T14:54:10.610Z,17.00
2023-01-11T14:59:25.965Z,19.00
2023-01-11T15:04:27.820Z,25.60
2023-01-11T15:09:48.350Z,33.60
2023-01-11T15:14:55.394Z,32.50
2023-01-11T15:20:07.403Z,31.00
2023-01-11T15:25:31.798Z,33.80
2023-01-11T15:30:38.032Z,36.90
2023-01-11T15:35:39.758Z,35.30
2023-01-11T15:40:46.527Z,25.90
2023-01-11T15:46:27.858Z,52.00
2023-01-11T15:51:55.407Z,38.80
2023-01-11T15:57:12.257Z,27.30
2023-01-11T16:02:13.928Z,24.40
2023-01-11T16:07:40.432Z,25.70
2023-01-11T16:13:04.536Z,24.90
2023-01-11T16:18:16.807Z,24.90
2023-01-11T16:23:20.904Z,27.00
2023-01-11T16:28:23.213Z,20.30
2023-01-11T16:33:30.154Z,23.20
2023-01-11T16:38:40.758Z,23.80
2023-01-11T16:44:04.535Z,24.50
2023-01-11T16:49:10.614Z,20.90
2023-01-11T16:54:19.978Z,23.90
2023-01-11T16:59:26.767Z,32.80
2023-01-11T17:04:34.544Z,48.50
2023-01-11T17:09:36.205Z,68.20
2023-01-11T17:14:45.619Z,53.80
2023-01-11T17:19:49.753Z,34.00
2023-01-11T17:24:56.343Z,30.10
2023-01-11T17:29:59.077Z,30.70
2023-01-11T17:35:03.840Z,34.70
2023-01-11T17:40:17.820Z,31.60
2023-01-11T17:45:24.894Z,29.00
2023-01-11T17:50:39.525Z,34.50
2023-01-11T17:55:54.000Z,27.30
2023-01-11T18:01:05.141Z,26.10
2023-01-11T18:06:23.264Z,25.40
2023-01-11T18:11:28.285Z,22.90
2023-01-11T18:16:30.078Z,29.00
2023-01-11T18:21:52.842Z,20.60
2023-01-11T18:27:17.963Z,17.20
2023-01-11T18:32:20.912Z,17.60
2023-01-11T18:37:23.579Z,14.30
2023-01-11T18:42:30.210Z,16.90
2023-01-11T18:47:31.945Z,19.10
2023-01-11T18:57:35.794Z,17.00
2023-01-11T19:02:43.342Z,12.30
2023-01-11T19:07:45.108Z,11.00
2023-01-11T19:12:47.399Z,10.80
2023-01-11T19:17:49.193Z,12.50
2023-01-11T19:22:51.103Z,8.20
2023-01-11T19:27:54.855Z,7.30
2023-01-11T19:32:56.810Z,7.40
2023-01-11T19:37:58.462Z,8.70
2023-01-11T19:43:00.184Z,7.30
2023-01-11T19:48:01.857Z,7.10
2023-01-11T19:53:03.753Z,8.20
2023-01-11T19:58:08.070Z,7.70
2023-01-11T20:03:09.965Z,9.90
2023-01-11T20:08:11.842Z,12.00
2023-01-11T20:13:13.637Z,12.30
2023-01-11T20:18:15.351Z,12.00
2023-01-11T20:23:17.047Z,16.60
2023-01-11T20:28:20.626Z,19.80
2023-01-11T20:33:22.539Z,34.30
2023-01-11T20:38:24.220Z,32.40
2023-01-11T20:43:26.087Z,10.70
2023-01-11T20:48:28.042Z,14.60
2023-01-11T20:53:30.051Z,11.60
2023-01-11T20:58:31.819Z,8.80
2023-01-11T21:03:33.508Z,8.30
2023-01-11T21:08:36.195Z,9.20
2023-01-11T21:13:38.433Z,9.20
2023-01-11T21:18:44.016Z,10.30
2023-01-11T21:23:47.526Z,7.40
2023-01-11T21:28:55.794Z,10.90
2023-01-11T21:33:58.285Z,12.20
2023-01-11T21:39:00.614Z,11.40
2023-01-11T21:44:02.340Z,12.10
2023-01-11T21:49:04.120Z,16.50
2023-01-11T21:54:09.815Z,10.40
2023-01-11T21:59:12.567Z,16.10
2023-01-11T22:04:16.242Z,9.60
2023-01-11T22:09:20.337Z,9.60
2023-01-11T22:14:24.171Z,10.30
2023-01-11T22:19:26.084Z,13.40
2023-01-11T22:24:27.834Z,10.10
2023-01-11T22:29:29.873Z,12.70
2023-01-11T22:34:39.235Z,11.40
2023-01-11T22:39:41.043Z,17.80
2023-01-11T22:44:42.713Z,19.30
2023-01-11T22:49:44.395Z,17.00
2023-01-11T22:54:46.050Z,18.60
2023-01-11T23:04:49.297Z,18.40
2023-01-11T23:09:50.966Z,17.90
2023-01-11T23:14:54.254Z,20.50
2023-01-11T23:19:55.944Z,13.30
2023-01-11T23:24:57.679Z,12.40
2023-01-11T23:29:59.784Z,6.60
2023-01-11T23:35:01.609Z,13.30
2023-01-11T23:40:03.506Z,15.70
2023-01-11T23:45:08.604Z,13.50
2023-01-11T23:50:10.442Z,10.90
2023-01-11T23:55:13.908Z,11.90
